sensor_id;sensor_type;location;lat;lon;timestamp;P1;durP1;ratioP1;P2;durP2;ratioP2
64197;SDS011;50512;53.666;9.700;2024-01-16T00:00:50;14.55;;;5.93;;
64197;SDS011;50512;53.666;9.700;2024-01-16T00:03:18;14.15;;;6.20;;
64197;SDS011;50512;53.666;9.700;2024-01-16T00:05:45;11.18;;;4.88;;
64197;SDS011;50512;53.666;9.700;2024-01-16T00:08:11;14.73;;;6.53;;
64197;SDS011;50512;53.666;9.700;2024-01-16T00:10:38;14.95;;;6.10;;
64197;SDS011;50512;53.666;9.700;2024-01-16T00:13:04;12.35;;;5.93;;
64197;SDS011;50512;53.666;9.700;2024-01-16T00:15:30;15.35;;;5.82;;
64197;SDS011;50512;53.666;9.700;2024-01-16T00:17:57;12.32;;;5.45;;
64197;SDS011;50512;53.666;9.700;2024-01-16T00:20:25;11.30;;;5.07;;
64197;SDS011;50512;53.666;9.700;2024-01-16T00:22:50;8.23;;;4.70;;
64197;SDS011;50512;53.666;9.700;2024-01-16T00:25:17;10.57;;;5.20;;
64197;SDS011;50512;53.666;9.700;2024-01-16T00:27:44;10.18;;;4.40;;
64197;SDS011;50512;53.666;9.700;2024-01-16T00:30:11;13.20;;;5.53;;
64197;SDS011;50512;53.666;9.700;2024-01-16T00:32:38;10.63;;;5.03;;
64197;SDS011;50512;53.666;9.700;2024-01-16T00:35:05;15.25;;;5.50;;
64197;SDS011;50512;53.666;9.700;2024-01-16T00:37:33;12.70;;;5.10;;
64197;SDS011;50512;53.666;9.700;2024-01-16T00:40:00;12.57;;;5.15;;
64197;SDS011;50512;53.666;9.700;2024-01-16T00:42:29;12.15;;;4.70;;
64197;SDS011;50512;53.666;9.700;2024-01-16T00:44:55;13.23;;;5.65;;
64197;SDS011;50512;53.666;9.700;2024-01-16T00:47:22;11.13;;;4.47;;
64197;SDS011;50512;53.666;9.700;2024-01-16T00:49:48;13.85;;;6.10;;
64197;SDS011;50512;53.666;9.700;2024-01-16T00:52:15;15.05;;;6.20;;
64197;SDS011;50512;53.666;9.700;2024-01-16T00:54:43;13.13;;;6.00;;
64197;SDS011;50512;53.666;9.700;2024-01-16T00:57:09;15.80;;;6.43;;
64197;SDS011;50512;53.666;9.700;2024-01-16T00:59:36;12.23;;;6.00;;
64197;SDS011;50512;53.666;9.700;2024-01-16T01:02:03;15.98;;;7.18;;
64197;SDS011;50512;53.666;9.700;2024-01-16T01:04:29;16.05;;;6.50;;
64197;SDS011;50512;53.666;9.700;2024-01-16T01:06:58;15.75;;;6.53;;
64197;SDS011;50512;53.666;9.700;2024-01-16T01:09:25;15.23;;;6.45;;
64197;SDS011;50512;53.666;9.700;2024-01-16T01:11:53;16.23;;;6.95;;
64197;SDS011;50512;53.666;9.700;2024-01-16T01:14:19;13.88;;;6.70;;
64197;SDS011;50512;53.666;9.700;2024-01-16T01:16:46;15.10;;;6.85;;
64197;SDS011;50512;53.666;9.700;2024-01-16T01:19:12;19.58;;;7.90;;
64197;SDS011;50512;53.666;9.700;2024-01-16T01:21:39;15.60;;;7.18;;
64197;SDS011;50512;53.666;9.700;2024-01-16T01:24:05;16.83;;;8.32;;
64197;SDS011;50512;53.666;9.700;2024-01-16T01:26:32;18.00;;;7.88;;
64197;SDS011;50512;53.666;9.700;2024-01-16T01:28:59;18.67;;;7.95;;
64197;SDS011;50512;53.666;9.700;2024-01-16T01:31:26;21.25;;;8.38;;
64197;SDS011;50512;53.666;9.700;2024-01-16T01:33:52;18.88;;;8.20;;
64197;SDS011;50512;53.666;9.700;2024-01-16T01:36:19;15.75;;;7.78;;
64197;SDS011;50512;53.666;9.700;2024-01-16T01:38:45;19.02;;;8.18;;
64197;SDS011;50512;53.666;9.700;2024-01-16T01:41:11;15.95;;;8.48;;
64197;SDS011;50512;53.666;9.700;2024-01-16T01:43:38;19.17;;;8.52;;
64197;SDS011;50512;53.666;9.700;2024-01-16T01:46:13;17.48;;;7.97;;
64197;SDS011;50512;53.666;9.700;2024-01-16T01:48:42;19.10;;;8.63;;
64197;SDS011;50512;53.666;9.700;2024-01-16T01:51:09;23.67;;;9.18;;
64197;SDS011;50512;53.666;9.700;2024-01-16T01:53:38;17.45;;;8.02;;
64197;SDS011;50512;53.666;9.700;2024-01-16T01:56:07;21.70;;;9.20;;
64197;SDS011;50512;53.666;9.700;2024-01-16T01:58:34;22.00;;;9.90;;
64197;SDS011;50512;53.666;9.700;2024-01-16T02:01:03;21.08;;;8.90;;
64197;SDS011;50512;53.666;9.700;2024-01-16T02:03:34;22.38;;;9.85;;
64197;SDS011;50512;53.666;9.700;2024-01-16T02:06:04;23.35;;;9.70;;
64197;SDS011;50512;53.666;9.700;2024-01-16T02:08:30;27.63;;;11.25;;
64197;SDS011;50512;53.666;9.700;2024-01-16T02:10:58;26.10;;;10.07;;
64197;SDS011;50512;53.666;9.700;2024-01-16T02:13:24;23.92;;;10.10;;
64197;SDS011;50512;53.666;9.700;2024-01-16T02:15:51;22.02;;;9.63;;
64197;SDS011;50512;53.666;9.700;2024-01-16T02:18:17;23.55;;;9.63;;
64197;SDS011;50512;53.666;9.700;2024-01-16T02:20:45;27.40;;;9.63;;
64197;SDS011;50512;53.666;9.700;2024-01-16T02:23:13;24.58;;;8.70;;
64197;SDS011;50512;53.666;9.700;2024-01-16T02:25:42;23.92;;;9.90;;
64197;SDS011;50512;53.666;9.700;2024-01-16T02:28:09;24.88;;;9.82;;
64197;SDS011;50512;53.666;9.700;2024-01-16T02:30:36;25.42;;;9.25;;
64197;SDS011;50512;53.666;9.700;2024-01-16T02:33:02;23.50;;;9.30;;
64197;SDS011;50512;53.666;9.700;2024-01-16T02:35:29;29.95;;;11.25;;
64197;SDS011;50512;53.666;9.700;2024-01-16T02:37:56;30.23;;;10.70;;
64197;SDS011;50512;53.666;9.700;2024-01-16T02:40:22;30.20;;;10.90;;
64197;SDS011;50512;53.666;9.700;2024-01-16T02:42:50;32.40;;;11.63;;
64197;SDS011;50512;53.666;9.700;2024-01-16T02:45:16;28.58;;;10.35;;
64197;SDS011;50512;53.666;9.700;2024-01-16T02:47:43;40.50;;;13.50;;
64197;SDS011;50512;53.666;9.700;2024-01-16T02:50:10;29.35;;;10.43;;
64197;SDS011;50512;53.666;9.700;2024-01-16T02:52:36;24.77;;;10.40;;
64197;SDS011;50512;53.666;9.700;2024-01-16T02:55:03;28.08;;;10.68;;
64197;SDS011;50512;53.666;9.700;2024-01-16T02:57:30;24.88;;;9.43;;
64197;SDS011;50512;53.666;9.700;2024-01-16T02:59:58;27.75;;;10.65;;
64197;SDS011;50512;53.666;9.700;2024-01-16T03:02:25;20.80;;;8.98;;
64197;SDS011;50512;53.666;9.700;2024-01-16T03:04:51;25.63;;;9.98;;
64197;SDS011;50512;53.666;9.700;2024-01-16T03:07:18;29.33;;;10.75;;
64197;SDS011;50512;53.666;9.700;2024-01-16T03:09:44;32.50;;;10.52;;
64197;SDS011;50512;53.666;9.700;2024-01-16T03:12:11;26.35;;;10.18;;
64197;SDS011;50512;53.666;9.700;2024-01-16T03:14:37;32.55;;;11.05;;
64197;SDS011;50512;53.666;9.700;2024-01-16T03:17:05;29.92;;;12.07;;
64197;SDS011;50512;53.666;9.700;2024-01-16T03:19:32;27.38;;;10.15;;
64197;SDS011;50512;53.666;9.700;2024-01-16T03:21:58;29.23;;;10.88;;
64197;SDS011;50512;53.666;9.700;2024-01-16T03:24:25;34.55;;;12.00;;
64197;SDS011;50512;53.666;9.700;2024-01-16T03:26:52;25.77;;;11.10;;
64197;SDS011;50512;53.666;9.700;2024-01-16T03:29:18;28.27;;;12.48;;
64197;SDS011;50512;53.666;9.700;2024-01-16T03:31:45;30.13;;;10.48;;
64197;SDS011;50512;53.666;9.700;2024-01-16T03:34:13;30.88;;;10.80;;
64197;SDS011;50512;53.666;9.700;2024-01-16T03:36:39;25.38;;;10.20;;
64197;SDS011;50512;53.666;9.700;2024-01-16T03:39:06;18.25;;;7.68;;
64197;SDS011;50512;53.666;9.700;2024-01-16T03:41:34;24.80;;;10.60;;
64197;SDS011;50512;53.666;9.700;2024-01-16T03:44:00;26.58;;;10.57;;
64197;SDS011;50512;53.666;9.700;2024-01-16T03:46:26;29.02;;;11.13;;
64197;SDS011;50512;53.666;9.700;2024-01-16T03:48:53;26.33;;;9.95;;
64197;SDS011;50512;53.666;9.700;2024-01-16T03:51:21;25.83;;;10.50;;
64197;SDS011;50512;53.666;9.700;2024-01-16T03:53:47;23.27;;;10.05;;
64197;SDS011;50512;53.666;9.700;2024-01-16T03:56:14;25.42;;;11.18;;
64197;SDS011;50512;53.666;9.700;2024-01-16T03:58:42;31.13;;;11.07;;
64197;SDS011;50512;53.666;9.700;2024-01-16T04:01:08;21.35;;;9.38;;
64197;SDS011;50512;53.666;9.700;2024-01-16T04:03:35;24.40;;;9.60;;
64197;SDS011;50512;53.666;9.700;2024-01-16T04:06:03;25.08;;;9.45;;
64197;SDS011;50512;53.666;9.700;2024-01-16T04:08:33;24.80;;;8.90;;
64197;SDS011;50512;53.666;9.700;2024-01-16T04:11:00;30.63;;;10.27;;
64197;SDS011;50512;53.666;9.700;2024-01-16T04:13:26;30.40;;;10.07;;
64197;SDS011;50512;53.666;9.700;2024-01-16T04:15:53;26.60;;;9.65;;
64197;SDS011;50512;53.666;9.700;2024-01-16T04:18:19;28.90;;;9.82;;
64197;SDS011;50512;53.666;9.700;2024-01-16T04:20:46;24.33;;;9.52;;
64197;SDS011;50512;53.666;9.700;2024-01-16T04:23:12;27.58;;;9.13;;
64197;SDS011;50512;53.666;9.700;2024-01-16T04:25:40;23.23;;;8.65;;
64197;SDS011;50512;53.666;9.700;2024-01-16T04:28:06;29.20;;;10.07;;
64197;SDS011;50512;53.666;9.700;2024-01-16T04:30:33;30.65;;;9.73;;
64197;SDS011;50512;53.666;9.700;2024-01-16T04:32:59;23.83;;;9.90;;
64197;SDS011;50512;53.666;9.700;2024-01-16T04:35:26;24.77;;;8.88;;
64197;SDS011;50512;53.666;9.700;2024-01-16T04:37:52;27.98;;;9.15;;
64197;SDS011;50512;53.666;9.700;2024-01-16T04:40:19;24.60;;;8.95;;
64197;SDS011;50512;53.666;9.700;2024-01-16T04:42:48;23.98;;;8.23;;
64197;SDS011;50512;53.666;9.700;2024-01-16T04:45:14;19.48;;;6.95;;
64197;SDS011;50512;53.666;9.700;2024-01-16T04:47:41;22.15;;;8.48;;
64197;SDS011;50512;53.666;9.700;2024-01-16T04:50:08;22.02;;;8.52;;
64197;SDS011;50512;53.666;9.700;2024-01-16T04:52:35;22.67;;;9.32;;
64197;SDS011;50512;53.666;9.700;2024-01-16T04:55:02;22.02;;;8.35;;
64197;SDS011;50512;53.666;9.700;2024-01-16T04:57:29;22.63;;;7.90;;
64197;SDS011;50512;53.666;9.700;2024-01-16T04:59:57;20.17;;;8.43;;
64197;SDS011;50512;53.666;9.700;2024-01-16T05:02:23;23.48;;;8.23;;
64197;SDS011;50512;53.666;9.700;2024-01-16T05:04:50;10.02;;;4.43;;
64197;SDS011;50512;53.666;9.700;2024-01-16T05:07:17;20.30;;;6.65;;
64197;SDS011;50512;53.666;9.700;2024-01-16T05:09:45;23.33;;;7.60;;
64197;SDS011;50512;53.666;9.700;2024-01-16T05:12:12;16.85;;;6.55;;
64197;SDS011;50512;53.666;9.700;2024-01-16T05:14:38;18.80;;;6.80;;
64197;SDS011;50512;53.666;9.700;2024-01-16T05:17:06;16.33;;;5.63;;
64197;SDS011;50512;53.666;9.700;2024-01-16T05:19:33;19.55;;;5.65;;
64197;SDS011;50512;53.666;9.700;2024-01-16T05:21:59;11.88;;;4.43;;
64197;SDS011;50512;53.666;9.700;2024-01-16T05:24:26;15.75;;;5.32;;
64197;SDS011;50512;53.666;9.700;2024-01-16T05:26:52;9.57;;;4.05;;
64197;SDS011;50512;53.666;9.700;2024-01-16T05:29:18;9.88;;;4.45;;
64197;SDS011;50512;53.666;9.700;2024-01-16T05:31:45;9.07;;;3.38;;
64197;SDS011;50512;53.666;9.700;2024-01-16T05:34:13;6.25;;;2.72;;
64197;SDS011;50512;53.666;9.700;2024-01-16T05:36:40;12.05;;;3.28;;
64197;SDS011;50512;53.666;9.700;2024-01-16T05:39:07;7.93;;;2.60;;
64197;SDS011;50512;53.666;9.700;2024-01-16T05:41:33;5.75;;;2.15;;
64197;SDS011;50512;53.666;9.700;2024-01-16T05:44:00;3.83;;;1.75;;
64197;SDS011;50512;53.666;9.700;2024-01-16T05:46:28;1.35;;;0.90;;
64197;SDS011;50512;53.666;9.700;2024-01-16T05:48:55;5.68;;;1.75;;
64197;SDS011;50512;53.666;9.700;2024-01-16T05:51:23;7.55;;;2.28;;
64197;SDS011;50512;53.666;9.700;2024-01-16T05:53:49;7.32;;;2.15;;
64197;SDS011;50512;53.666;9.700;2024-01-16T05:56:15;7.53;;;2.50;;
64197;SDS011;50512;53.666;9.700;2024-01-16T05:58:42;4.15;;;1.73;;
64197;SDS011;50512;53.666;9.700;2024-01-16T06:01:08;5.13;;;1.83;;
64197;SDS011;50512;53.666;9.700;2024-01-16T06:03:38;6.00;;;1.70;;
64197;SDS011;50512;53.666;9.700;2024-01-16T06:06:04;3.80;;;1.65;;
64197;SDS011;50512;53.666;9.700;2024-01-16T06:08:33;6.78;;;1.80;;
64197;SDS011;50512;53.666;9.700;2024-01-16T06:11:00;5.78;;;1.92;;
64197;SDS011;50512;53.666;9.700;2024-01-16T06:13:26;9.13;;;2.38;;
64197;SDS011;50512;53.666;9.700;2024-01-16T06:15:53;8.35;;;2.22;;
64197;SDS011;50512;53.666;9.700;2024-01-16T06:18:20;7.53;;;1.75;;
64197;SDS011;50512;53.666;9.700;2024-01-16T06:20:46;2.78;;;1.35;;
64197;SDS011;50512;53.666;9.700;2024-01-16T06:23:13;3.38;;;1.25;;
64197;SDS011;50512;53.666;9.700;2024-01-16T06:25:40;5.80;;;2.25;;
64197;SDS011;50512;53.666;9.700;2024-01-16T06:28:07;6.28;;;2.47;;
64197;SDS011;50512;53.666;9.700;2024-01-16T06:30:33;4.63;;;1.27;;
64197;SDS011;50512;53.666;9.700;2024-01-16T06:33:00;7.68;;;2.33;;
64197;SDS011;50512;53.666;9.700;2024-01-16T06:35:26;5.90;;;2.00;;
64197;SDS011;50512;53.666;9.700;2024-01-16T06:37:53;13.07;;;2.88;;
64197;SDS011;50512;53.666;9.700;2024-01-16T06:40:19;8.48;;;2.88;;
64197;SDS011;50512;53.666;9.700;2024-01-16T06:42:47;9.88;;;2.80;;
64197;SDS011;50512;53.666;9.700;2024-01-16T06:45:14;8.30;;;2.65;;
64197;SDS011;50512;53.666;9.700;2024-01-16T06:47:41;5.32;;;2.28;;
64197;SDS011;50512;53.666;9.700;2024-01-16T06:50:08;10.25;;;2.60;;
64197;SDS011;50512;53.666;9.700;2024-01-16T06:52:34;6.88;;;2.50;;
64197;SDS011;50512;53.666;9.700;2024-01-16T06:55:01;5.10;;;1.48;;
64197;SDS011;50512;53.666;9.700;2024-01-16T06:57:27;4.97;;;2.25;;
64197;SDS011;50512;53.666;9.700;2024-01-16T06:59:55;5.00;;;1.88;;
64197;SDS011;50512;53.666;9.700;2024-01-16T07:02:21;4.55;;;1.70;;
64197;SDS011;50512;53.666;9.700;2024-01-16T07:04:48;6.53;;;1.70;;
64197;SDS011;50512;53.666;9.700;2024-01-16T07:07:15;3.78;;;1.50;;
64197;SDS011;50512;53.666;9.700;2024-01-16T07:09:41;7.45;;;2.80;;
64197;SDS011;50512;53.666;9.700;2024-01-16T07:12:07;8.88;;;2.10;;
64197;SDS011;50512;53.666;9.700;2024-01-16T07:14:34;6.22;;;1.65;;
64197;SDS011;50512;53.666;9.700;2024-01-16T07:17:03;6.15;;;2.25;;
64197;SDS011;50512;53.666;9.700;2024-01-16T07:19:32;5.20;;;2.22;;
64197;SDS011;50512;53.666;9.700;2024-01-16T07:21:59;6.38;;;2.65;;
64197;SDS011;50512;53.666;9.700;2024-01-16T07:24:25;8.35;;;2.80;;
64197;SDS011;50512;53.666;9.700;2024-01-16T07:26:51;7.57;;;2.60;;
64197;SDS011;50512;53.666;9.700;2024-01-16T07:29:19;6.82;;;2.10;;
64197;SDS011;50512;53.666;9.700;2024-01-16T07:31:46;7.55;;;3.75;;
64197;SDS011;50512;53.666;9.700;2024-01-16T07:34:13;6.65;;;2.58;;
64197;SDS011;50512;53.666;9.700;2024-01-16T07:36:45;10.95;;;3.10;;
64197;SDS011;50512;53.666;9.700;2024-01-16T07:39:11;11.10;;;3.55;;
64197;SDS011;50512;53.666;9.700;2024-01-16T07:41:38;6.80;;;3.00;;
64197;SDS011;50512;53.666;9.700;2024-01-16T07:44:04;10.80;;;3.03;;
64197;SDS011;50512;53.666;9.700;2024-01-16T07:46:30;9.48;;;2.92;;
64197;SDS011;50512;53.666;9.700;2024-01-16T07:48:57;6.07;;;2.55;;
64197;SDS011;50512;53.666;9.700;2024-01-16T07:51:25;9.93;;;2.78;;
64197;SDS011;50512;53.666;9.700;2024-01-16T07:53:57;4.03;;;2.22;;
64197;SDS011;50512;53.666;9.700;2024-01-16T07:56:31;7.38;;;4.30;;
64197;SDS011;50512;53.666;9.700;2024-01-16T07:58:58;9.90;;;2.83;;
64197;SDS011;50512;53.666;9.700;2024-01-16T08:01:24;9.07;;;2.75;;
64197;SDS011;50512;53.666;9.700;2024-01-16T08:03:51;6.90;;;2.65;;
64197;SDS011;50512;53.666;9.700;2024-01-16T08:06:17;11.48;;;3.70;;
64197;SDS011;50512;53.666;9.700;2024-01-16T08:08:45;7.13;;;2.08;;
64197;SDS011;50512;53.666;9.700;2024-01-16T08:11:12;9.02;;;2.80;;
64197;SDS011;50512;53.666;9.700;2024-01-16T08:13:38;14.02;;;3.20;;
64197;SDS011;50512;53.666;9.700;2024-01-16T08:16:05;8.88;;;2.85;;
64197;SDS011;50512;53.666;9.700;2024-01-16T08:18:31;7.93;;;2.92;;
64197;SDS011;50512;53.666;9.700;2024-01-16T08:20:58;4.72;;;1.40;;
64197;SDS011;50512;53.666;9.700;2024-01-16T08:23:24;8.32;;;3.05;;
64197;SDS011;50512;53.666;9.700;2024-01-16T08:25:52;17.08;;;4.88;;
64197;SDS011;50512;53.666;9.700;2024-01-16T08:28:19;13.65;;;4.85;;
64197;SDS011;50512;53.666;9.700;2024-01-16T08:30:45;9.65;;;3.58;;
64197;SDS011;50512;53.666;9.700;2024-01-16T08:33:11;5.10;;;2.78;;
64197;SDS011;50512;53.666;9.700;2024-01-16T08:35:38;9.35;;;3.45;;
64197;SDS011;50512;53.666;9.700;2024-01-16T08:38:04;10.25;;;4.13;;
64197;SDS011;50512;53.666;9.700;2024-01-16T08:40:31;11.95;;;3.83;;
64197;SDS011;50512;53.666;9.700;2024-01-16T08:42:59;13.27;;;3.15;;
64197;SDS011;50512;53.666;9.700;2024-01-16T08:45:25;12.93;;;3.67;;
64197;SDS011;50512;53.666;9.700;2024-01-16T08:47:52;12.50;;;3.83;;
64197;SDS011;50512;53.666;9.700;2024-01-16T08:50:18;8.88;;;3.33;;
64197;SDS011;50512;53.666;9.700;2024-01-16T08:52:44;6.60;;;2.65;;
64197;SDS011;50512;53.666;9.700;2024-01-16T08:55:11;16.00;;;4.13;;
64197;SDS011;50512;53.666;9.700;2024-01-16T08:57:37;12.20;;;3.78;;
64197;SDS011;50512;53.666;9.700;2024-01-16T09:00:06;16.27;;;4.05;;
64197;SDS011;50512;53.666;9.700;2024-01-16T09:02:34;22.48;;;4.97;;
64197;SDS011;50512;53.666;9.700;2024-01-16T09:05:00;13.43;;;4.18;;
64197;SDS011;50512;53.666;9.700;2024-01-16T09:07:27;11.43;;;3.65;;
64197;SDS011;50512;53.666;9.700;2024-01-16T09:09:53;11.15;;;4.05;;
64197;SDS011;50512;53.666;9.700;2024-01-16T09:12:20;14.48;;;3.65;;
64197;SDS011;50512;53.666;9.700;2024-01-16T09:14:46;8.02;;;2.97;;
64197;SDS011;50512;53.666;9.700;2024-01-16T09:17:14;8.32;;;2.97;;
64197;SDS011;50512;53.666;9.700;2024-01-16T09:19:41;8.95;;;3.78;;
64197;SDS011;50512;53.666;9.700;2024-01-16T09:22:07;6.57;;;3.38;;
64197;SDS011;50512;53.666;9.700;2024-01-16T09:24:34;11.77;;;3.33;;
64197;SDS011;50512;53.666;9.700;2024-01-16T09:27:00;7.90;;;3.22;;
64197;SDS011;50512;53.666;9.700;2024-01-16T09:29:31;13.75;;;3.55;;
64197;SDS011;50512;53.666;9.700;2024-01-16T09:31:57;12.85;;;3.03;;
64197;SDS011;50512;53.666;9.700;2024-01-16T09:34:26;7.35;;;2.63;;
64197;SDS011;50512;53.666;9.700;2024-01-16T09:36:53;8.45;;;3.10;;
64197;SDS011;50512;53.666;9.700;2024-01-16T09:39:24;9.02;;;2.45;;
64197;SDS011;50512;53.666;9.700;2024-01-16T09:41:50;11.93;;;2.47;;
64197;SDS011;50512;53.666;9.700;2024-01-16T09:44:17;8.98;;;2.42;;
64197;SDS011;50512;53.666;9.700;2024-01-16T09:46:43;7.55;;;2.60;;
64197;SDS011;50512;53.666;9.700;2024-01-16T09:49:12;10.55;;;2.58;;
64197;SDS011;50512;53.666;9.700;2024-01-16T09:51:42;6.88;;;3.47;;
64197;SDS011;50512;53.666;9.700;2024-01-16T09:54:08;6.60;;;2.30;;
64197;SDS011;50512;53.666;9.700;2024-01-16T09:56:35;9.55;;;3.05;;
64197;SDS011;50512;53.666;9.700;2024-01-16T09:59:07;5.57;;;2.53;;
64197;SDS011;50512;53.666;9.700;2024-01-16T10:01:35;9.93;;;2.58;;
64197;SDS011;50512;53.666;9.700;2024-01-16T10:04:03;7.13;;;2.72;;
64197;SDS011;50512;53.666;9.700;2024-01-16T10:06:29;10.25;;;3.33;;
64197;SDS011;50512;53.666;9.700;2024-01-16T10:09:01;11.80;;;4.10;;
64197;SDS011;50512;53.666;9.700;2024-01-16T10:11:27;10.95;;;3.53;;
64197;SDS011;50512;53.666;9.700;2024-01-16T10:13:55;5.28;;;1.95;;
64197;SDS011;50512;53.666;9.700;2024-01-16T10:16:22;7.75;;;3.90;;
64197;SDS011;50512;53.666;9.700;2024-01-16T10:18:48;8.82;;;3.13;;
64197;SDS011;50512;53.666;9.700;2024-01-16T10:21:19;11.60;;;3.20;;
64197;SDS011;50512;53.666;9.700;2024-01-16T10:23:47;9.60;;;3.30;;
64197;SDS011;50512;53.666;9.700;2024-01-16T10:26:16;9.25;;;3.72;;
64197;SDS011;50512;53.666;9.700;2024-01-16T10:28:44;10.45;;;3.30;;
64197;SDS011;50512;53.666;9.700;2024-01-16T10:31:10;6.78;;;2.42;;
64197;SDS011;50512;53.666;9.700;2024-01-16T10:33:39;12.38;;;3.00;;
64197;SDS011;50512;53.666;9.700;2024-01-16T10:36:09;6.85;;;2.83;;
64197;SDS011;50512;53.666;9.700;2024-01-16T10:38:37;8.27;;;2.75;;
64197;SDS011;50512;53.666;9.700;2024-01-16T10:41:08;8.90;;;3.10;;
64197;SDS011;50512;53.666;9.700;2024-01-16T10:43:37;7.85;;;2.20;;
64197;SDS011;50512;53.666;9.700;2024-01-16T10:46:07;7.68;;;2.47;;
64197;SDS011;50512;53.666;9.700;2024-01-16T10:48:36;8.20;;;2.40;;
64197;SDS011;50512;53.666;9.700;2024-01-16T10:51:04;14.35;;;4.88;;
64197;SDS011;50512;53.666;9.700;2024-01-16T10:53:32;8.82;;;2.60;;
64197;SDS011;50512;53.666;9.700;2024-01-16T10:56:00;5.10;;;2.60;;
64197;SDS011;50512;53.666;9.700;2024-01-16T10:58:30;12.20;;;2.30;;
64197;SDS011;50512;53.666;9.700;2024-01-16T11:01:00;8.15;;;2.40;;
64197;SDS011;50512;53.666;9.700;2024-01-16T11:03:30;7.60;;;2.47;;
64197;SDS011;50512;53.666;9.700;2024-01-16T11:06:02;14.52;;;2.50;;
64197;SDS011;50512;53.666;9.700;2024-01-16T11:08:32;4.38;;;2.00;;
64197;SDS011;50512;53.666;9.700;2024-01-16T11:11:01;6.68;;;2.65;;
64197;SDS011;50512;53.666;9.700;2024-01-16T11:13:29;9.40;;;2.75;;
64197;SDS011;50512;53.666;9.700;2024-01-16T11:16:00;7.60;;;2.72;;
64197;SDS011;50512;53.666;9.700;2024-01-16T11:18:29;8.55;;;2.65;;
64197;SDS011;50512;53.666;9.700;2024-01-16T11:20:57;4.53;;;2.33;;
64197;SDS011;50512;53.666;9.700;2024-01-16T11:23:24;4.70;;;2.20;;
64197;SDS011;50512;53.666;9.700;2024-01-16T11:25:51;7.25;;;1.95;;
64197;SDS011;50512;53.666;9.700;2024-01-16T11:28:17;13.10;;;2.53;;
64197;SDS011;50512;53.666;9.700;2024-01-16T11:30:44;4.97;;;2.42;;
64197;SDS011;50512;53.666;9.700;2024-01-16T11:36:42;6.75;;;3.13;;
64197;SDS011;50512;53.666;9.700;2024-01-16T11:39:09;6.60;;;2.55;;
64197;SDS011;50512;53.666;9.700;2024-01-16T11:41:52;4.55;;;1.73;;
64197;SDS011;50512;53.666;9.700;2024-01-16T11:47:06;12.70;;;2.47;;
64197;SDS011;50512;53.666;9.700;2024-01-16T11:49:35;6.75;;;2.53;;
64197;SDS011;50512;53.666;9.700;2024-01-16T11:52:01;11.63;;;3.15;;
64197;SDS011;50512;53.666;9.700;2024-01-16T11:54:28;21.25;;;4.03;;
64197;SDS011;50512;53.666;9.700;2024-01-16T11:57:01;7.82;;;2.90;;
64197;SDS011;50512;53.666;9.700;2024-01-16T11:59:57;8.30;;;2.40;;
64197;SDS011;50512;53.666;9.700;2024-01-16T12:02:26;12.38;;;3.42;;
64197;SDS011;50512;53.666;9.700;2024-01-16T12:04:59;9.25;;;3.72;;
64197;SDS011;50512;53.666;9.700;2024-01-16T12:07:29;7.05;;;2.70;;
64197;SDS011;50512;53.666;9.700;2024-01-16T12:09:58;8.65;;;3.20;;
64197;SDS011;50512;53.666;9.700;2024-01-16T12:12:25;11.35;;;2.95;;
64197;SDS011;50512;53.666;9.700;2024-01-16T12:14:52;8.30;;;2.80;;
64197;SDS011;50512;53.666;9.700;2024-01-16T12:17:19;9.63;;;2.80;;
64197;SDS011;50512;53.666;9.700;2024-01-16T12:19:46;12.27;;;4.40;;
64197;SDS011;50512;53.666;9.700;2024-01-16T12:22:16;6.60;;;2.63;;
64197;SDS011;50512;53.666;9.700;2024-01-16T12:24:43;4.88;;;2.55;;
64197;SDS011;50512;53.666;9.700;2024-01-16T12:27:10;11.85;;;2.90;;
64197;SDS011;50512;53.666;9.700;2024-01-16T12:29:37;9.18;;;3.22;;
64197;SDS011;50512;53.666;9.700;2024-01-16T12:32:05;9.38;;;3.13;;
64197;SDS011;50512;53.666;9.700;2024-01-16T12:34:33;7.50;;;2.75;;
64197;SDS011;50512;53.666;9.700;2024-01-16T12:37:06;9.30;;;3.05;;
64197;SDS011;50512;53.666;9.700;2024-01-16T12:39:34;8.70;;;2.70;;
64197;SDS011;50512;53.666;9.700;2024-01-16T12:42:01;9.55;;;3.25;;
64197;SDS011;50512;53.666;9.700;2024-01-16T12:44:28;7.68;;;3.22;;
64197;SDS011;50512;53.666;9.700;2024-01-16T12:46:55;9.68;;;3.78;;
64197;SDS011;50512;53.666;9.700;2024-01-16T12:49:23;8.38;;;2.97;;
64197;SDS011;50512;53.666;9.700;2024-01-16T12:51:49;6.57;;;3.08;;
64197;SDS011;50512;53.666;9.700;2024-01-16T12:54:17;8.85;;;4.03;;
64197;SDS011;50512;53.666;9.700;2024-01-16T12:56:57;8.35;;;3.20;;
64197;SDS011;50512;53.666;9.700;2024-01-16T12:59:26;9.55;;;3.72;;
64197;SDS011;50512;53.666;9.700;2024-01-16T13:01:55;11.55;;;3.17;;
64197;SDS011;50512;53.666;9.700;2024-01-16T13:04:21;7.07;;;3.17;;
64197;SDS011;50512;53.666;9.700;2024-01-16T13:06:48;10.48;;;2.83;;
64197;SDS011;50512;53.666;9.700;2024-01-16T13:09:14;9.48;;;3.20;;
64197;SDS011;50512;53.666;9.700;2024-01-16T13:11:49;7.32;;;3.20;;
64197;SDS011;50512;53.666;9.700;2024-01-16T13:14:16;8.55;;;3.17;;
64197;SDS011;50512;53.666;9.700;2024-01-16T13:16:42;5.97;;;2.72;;
64197;SDS011;50512;53.666;9.700;2024-01-16T13:19:08;5.88;;;3.08;;
64197;SDS011;50512;53.666;9.700;2024-01-16T13:21:36;7.22;;;3.25;;
64197;SDS011;50512;53.666;9.700;2024-01-16T13:24:02;6.35;;;2.97;;
64197;SDS011;50512;53.666;9.700;2024-01-16T13:26:29;6.25;;;2.60;;
64197;SDS011;50512;53.666;9.700;2024-01-16T13:28:58;8.55;;;3.05;;
64197;SDS011;50512;53.666;9.700;2024-01-16T13:31:24;6.25;;;3.00;;
64197;SDS011;50512;53.666;9.700;2024-01-16T13:33:51;10.27;;;3.35;;
64197;SDS011;50512;53.666;9.700;2024-01-16T13:36:17;9.48;;;3.72;;
64197;SDS011;50512;53.666;9.700;2024-01-16T13:38:45;13.10;;;3.83;;
64197;SDS011;50512;53.666;9.700;2024-01-16T13:41:12;9.38;;;3.85;;
64197;SDS011;50512;53.666;9.700;2024-01-16T13:43:38;9.20;;;3.05;;
64197;SDS011;50512;53.666;9.700;2024-01-16T13:46:06;4.38;;;2.72;;
64197;SDS011;50512;53.666;9.700;2024-01-16T13:48:33;10.07;;;3.08;;
64197;SDS011;50512;53.666;9.700;2024-01-16T13:51:00;13.73;;;4.63;;
64197;SDS011;50512;53.666;9.700;2024-01-16T13:53:26;12.45;;;5.38;;
64197;SDS011;50512;53.666;9.700;2024-01-16T13:55:53;11.18;;;4.20;;
64197;SDS011;50512;53.666;9.700;2024-01-16T13:58:19;12.32;;;3.97;;
64197;SDS011;50512;53.666;9.700;2024-01-16T14:00:46;6.40;;;3.53;;
64197;SDS011;50512;53.666;9.700;2024-01-16T14:03:14;13.55;;;4.25;;
64197;SDS011;50512;53.666;9.700;2024-01-16T14:05:42;14.05;;;3.78;;
64197;SDS011;50512;53.666;9.700;2024-01-16T14:08:08;12.80;;;4.00;;
64197;SDS011;50512;53.666;9.700;2024-01-16T14:10:37;11.52;;;4.20;;
64197;SDS011;50512;53.666;9.700;2024-01-16T14:13:04;8.73;;;3.85;;
64197;SDS011;50512;53.666;9.700;2024-01-16T14:15:31;9.52;;;3.75;;
64197;SDS011;50512;53.666;9.700;2024-01-16T14:17:57;12.23;;;3.85;;
64197;SDS011;50512;53.666;9.700;2024-01-16T14:20:25;14.65;;;4.03;;
64197;SDS011;50512;53.666;9.700;2024-01-16T14:22:52;8.98;;;3.70;;
64197;SDS011;50512;53.666;9.700;2024-01-16T14:25:19;12.52;;;3.72;;
64197;SDS011;50512;53.666;9.700;2024-01-16T14:27:48;8.15;;;4.40;;
64197;SDS011;50512;53.666;9.700;2024-01-16T14:30:21;16.05;;;3.92;;
64197;SDS011;50512;53.666;9.700;2024-01-16T14:32:47;8.38;;;3.72;;
64197;SDS011;50512;53.666;9.700;2024-01-16T14:35:14;6.53;;;3.63;;
64197;SDS011;50512;53.666;9.700;2024-01-16T14:37:43;8.18;;;3.25;;
64197;SDS011;50512;53.666;9.700;2024-01-16T14:40:10;5.97;;;2.63;;
64197;SDS011;50512;53.666;9.700;2024-01-16T14:42:40;12.85;;;4.93;;
64197;SDS011;50512;53.666;9.700;2024-01-16T14:45:07;8.77;;;3.60;;